createdAt,value
2023-03-11T00:00:15.209Z,58.22
2023-03-11T00:02:41.602Z,58.94
2023-03-11T00:05:09.054Z,58.95
2023-03-11T00:07:35.417Z,58.26
2023-03-11T00:10:01.707Z,58.20
2023-03-11T00:12:28.114Z,57.99
2023-03-11T00:14:54.416Z,58.28
2023-03-11T00:17:20.702Z,57.71
2023-03-11T00:19:47.102Z,57.91
2023-03-11T00:22:13.493Z,58.15
2023-03-11T00:24:39.795Z,58.16
2023-03-11T00:27:06.148Z,58.26
2023-03-11T00:29:32.547Z,58.31
2023-03-11T00:31:58.939Z,58.78
2023-03-11T00:34:25.254Z,58.88
2023-03-11T00:36:51.557Z,58.84
2023-03-11T00:39:17.849Z,59.32
2023-03-11T00:41:44.183Z,59.02
2023-03-11T00:44:10.692Z,59.19
2023-03-11T00:46:37.047Z,58.99
2023-03-11T00:49:03.646Z,59.31
2023-03-11T00:51:30.349Z,60.31
2023-03-11T00:53:57.593Z,60.88
2023-03-11T00:56:23.885Z,60.70
2023-03-11T00:58:50.190Z,60.80
2023-03-11T01:01:18.880Z,61.34
2023-03-11T01:03:45.743Z,61.31
2023-03-11T01:06:12.898Z,60.98
2023-03-11T01:08:39.850Z,61.58
2023-03-11T01:11:06.958Z,62.30
2023-03-11T01:13:34.296Z,62.03
2023-03-11T01:16:01.172Z,62.99
2023-03-11T01:18:27.828Z,63.06
2023-03-11T01:20:54.703Z,63.62
2023-03-11T01:23:21.374Z,63.81
2023-03-11T01:25:47.927Z,64.14
2023-03-11T01:28:14.248Z,63.97
2023-03-11T01:30:41.972Z,63.90
2023-03-11T01:33:13.287Z,63.75
2023-03-11T01:35:39.607Z,64.00
2023-03-11T01:38:06.029Z,64.46
2023-03-11T01:40:36.424Z,64.12
2023-03-11T01:43:05.745Z,65.12
2023-03-11T01:45:50.397Z,65.07
2023-03-11T01:48:16.766Z,65.03
2023-03-11T01:50:46.774Z,65.34
2023-03-11T01:53:15.790Z,65.65
2023-03-11T01:55:43.360Z,66.12
2023-03-11T01:58:16.148Z,66.29
2023-03-11T02:00:43.636Z,66.50
2023-03-11T02:03:17.735Z,66.51
2023-03-11T02:05:45.274Z,67.59
2023-03-11T02:08:11.667Z,67.57
2023-03-11T02:10:41.275Z,67.68
2023-03-11T02:13:07.840Z,68.22
2023-03-11T02:15:34.266Z,68.39
2023-03-11T02:18:05.120Z,68.61
2023-03-11T02:20:45.215Z,68.81
2023-03-11T02:23:13.050Z,68.80
2023-03-11T02:25:46.019Z,69.14
2023-03-11T02:28:14.191Z,69.39
2023-03-11T02:30:42.628Z,69.01
2023-03-11T02:33:09.913Z,69.32
2023-03-11T02:35:36.478Z,68.57
2023-03-11T02:38:03.392Z,68.87
2023-03-11T02:40:48.637Z,69.30
2023-03-11T02:43:18.004Z,69.54
2023-03-11T02:45:46.437Z,69.73
2023-03-11T02:48:14.464Z,68.46
2023-03-11T02:50:41.419Z,68.54
2023-03-11T02:53:08.072Z,69.05
2023-03-11T02:55:34.572Z,68.94
2023-03-11T02:58:00.980Z,67.98
2023-03-11T03:00:27.613Z,68.00
2023-03-11T03:02:54.024Z,68.10
2023-03-11T03:05:22.047Z,67.82
2023-03-11T03:07:49.642Z,67.04
2023-03-11T03:10:17.095Z,66.92
2023-03-11T03:12:43.493Z,67.19
2023-03-11T03:15:11.203Z,67.01
2023-03-11T03:17:38.372Z,67.80
2023-03-11T03:20:05.611Z,66.86
2023-03-11T03:22:32.015Z,65.98
2023-03-11T03:24:58.310Z,65.80
2023-03-11T03:27:24.685Z,65.54
2023-03-11T03:29:51.001Z,66.22
2023-03-11T03:32:17.333Z,66.32
2023-03-11T03:34:43.652Z,66.45
2023-03-11T03:37:09.993Z,66.18
2023-03-11T03:39:36.423Z,66.04
2023-03-11T03:42:02.742Z,66.09
2023-03-11T03:44:29.072Z,65.79
2023-03-11T03:46:55.359Z,66.00
2023-03-11T03:49:21.889Z,65.05
2023-03-11T03:51:48.184Z,65.09
2023-03-11T03:54:15.146Z,65.79
2023-03-11T03:56:41.479Z,65.47
2023-03-11T03:59:07.864Z,65.31
2023-03-11T04:01:34.153Z,65.74
2023-03-11T04:04:00.531Z,66.11
2023-03-11T04:06:27.940Z,65.91
2023-03-11T04:08:54.862Z,65.54
2023-03-11T04:11:22.379Z,64.59
2023-03-11T04:13:49.445Z,65.07
2023-03-11T04:16:19.803Z,65.86
2023-03-11T04:18:46.731Z,65.33
2023-03-11T04:21:13.181Z,65.29
2023-03-11T04:23:39.799Z,65.34
2023-03-11T04:26:06.254Z,65.60
2023-03-11T04:28:33.024Z,65.82
2023-03-11T04:30:59.360Z,65.75
2023-03-11T04:33:25.674Z,66.22
2023-03-11T04:35:52.008Z,66.21
2023-03-11T04:38:18.518Z,65.72
2023-03-11T04:40:44.865Z,65.27
2023-03-11T04:43:11.148Z,65.02
2023-03-11T04:45:41.742Z,65.36
2023-03-11T04:48:08.857Z,65.78
2023-03-11T04:50:35.311Z,65.37
2023-03-11T04:53:01.852Z,65.66
2023-03-11T04:55:28.113Z,65.57
2023-03-11T04:57:54.434Z,66.24
2023-03-11T05:00:21.072Z,65.88
2023-03-11T05:02:47.498Z,66.54
2023-03-11T05:05:13.831Z,67.13
2023-03-11T05:07:40.134Z,66.96
2023-03-11T05:10:06.947Z,67.72
2023-03-11T05:12:33.507Z,67.09
2023-03-11T05:14:59.915Z,67.00
2023-03-11T05:17:26.226Z,66.95
2023-03-11T05:19:53.247Z,67.00
2023-03-11T05:22:20.482Z,67.05
2023-03-11T05:24:47.014Z,67.10
2023-03-11T05:27:13.973Z,67.62
2023-03-11T05:29:40.392Z,67.48
2023-03-11T05:32:06.924Z,67.34
2023-03-11T05:34:33.323Z,67.49
2023-03-11T05:37:02.689Z,67.84
2023-03-11T05:39:29.538Z,67.68
2023-03-11T05:41:55.936Z,68.06
2023-03-11T05:44:22.762Z,67.89
2023-03-11T05:46:49.253Z,67.85
2023-03-11T05:49:15.699Z,68.07
2023-03-11T05:51:42.074Z,68.04
2023-03-11T05:54:08.346Z,67.97
2023-03-11T05:56:34.954Z,68.14
2023-03-11T05:59:01.230Z,67.73
2023-03-11T06:01:27.537Z,67.57
2023-03-11T06:03:53.940Z,67.16
2023-03-11T06:06:20.264Z,67.31
2023-03-11T06:08:46.633Z,67.72
2023-03-11T06:11:13.034Z,67.68
2023-03-11T06:13:39.354Z,67.74
2023-03-11T06:16:06.383Z,67.28
2023-03-11T06:18:32.711Z,67.61
2023-03-11T06:21:00.609Z,66.29
2023-03-11T06:23:26.867Z,66.56
2023-03-11T06:25:59.906Z,66.88
2023-03-11T06:28:26.943Z,66.98
2023-03-11T06:30:53.449Z,66.58
2023-03-11T06:33:19.718Z,66.84
2023-03-11T06:35:56.287Z,66.95
2023-03-11T06:38:22.594Z,66.46
2023-03-11T06:40:48.958Z,66.25
2023-03-11T06:43:15.564Z,66.19
2023-03-11T06:45:41.925Z,66.03
2023-03-11T06:48:08.204Z,66.36
2023-03-11T06:50:34.603Z,66.87
2023-03-11T06:53:00.965Z,66.55
2023-03-11T06:55:27.316Z,66.80
2023-03-11T06:57:53.574Z,66.48
2023-03-11T07:00:20.136Z,66.63
2023-03-11T07:02:46.422Z,67.26
2023-03-11T07:05:12.685Z,66.79
2023-03-11T07:07:38.985Z,66.21
2023-03-11T07:10:05.978Z,65.38
2023-03-11T07:12:32.548Z,65.87
2023-03-11T07:14:59.689Z,66.03
2023-03-11T07:17:26.614Z,65.67
2023-03-11T07:19:53.400Z,66.05
2023-03-11T07:22:20.934Z,66.06
2023-03-11T07:24:48.635Z,66.05
2023-03-11T07:27:15.523Z,65.76
2023-03-11T07:29:41.954Z,66.51
2023-03-11T07:32:08.582Z,65.59
2023-03-11T07:34:35.478Z,65.13
2023-03-11T07:37:01.947Z,64.87
2023-03-11T07:39:28.328Z,64.55
2023-03-11T07:41:54.637Z,64.87
2023-03-11T07:44:21.040Z,65.29
2023-03-11T07:46:47.337Z,65.19
2023-03-11T07:49:14.039Z,65.61
2023-03-11T07:51:40.539Z,64.35
2023-03-11T07:54:07.092Z,63.67
2023-03-11T07:56:34.959Z,64.17
2023-03-11T07:59:03.571Z,64.17
2023-03-11T08:01:31.450Z,64.02
2023-03-11T08:03:57.787Z,64.04
2023-03-11T08:06:30.051Z,63.05
2023-03-11T08:11:31.596Z,66.22
2023-03-11T08:13:58.341Z,65.67
2023-03-11T08:16:26.193Z,64.01
2023-03-11T08:18:52.788Z,63.39
2023-03-11T08:21:21.750Z,62.79
2023-03-11T08:23:48.708Z,62.64
2023-03-11T08:26:17.960Z,62.78
2023-03-11T08:28:44.383Z,63.41
2023-03-11T08:31:15.070Z,61.88
2023-03-11T08:33:42.181Z,61.69
2023-03-11T08:36:08.743Z,61.14
2023-03-11T08:38:35.151Z,59.67
2023-03-11T08:41:01.777Z,58.57
2023-03-11T08:43:28.302Z,57.90
2023-03-11T08:45:54.739Z,58.43
2023-03-11T08:48:21.240Z,58.87
2023-03-11T08:50:54.199Z,59.46
2023-03-11T08:53:21.895Z,58.67
2023-03-11T08:55:49.904Z,56.80
2023-03-11T08:58:16.254Z,55.12
2023-03-11T09:00:42.673Z,55.21
2023-03-11T09:03:09.051Z,55.97
2023-03-11T09:05:35.925Z,55.78
2023-03-11T09:08:05.199Z,56.49
2023-03-11T09:10:32.103Z,54.89
2023-03-11T09:12:58.385Z,54.82
2023-03-11T09:15:24.738Z,55.31
2023-03-11T09:17:51.114Z,55.20
2023-03-11T09:20:17.434Z,53.08
2023-03-11T09:22:43.830Z,53.50
2023-03-11T09:25:12.442Z,53.08
2023-03-11T09:27:38.936Z,53.72
2023-03-11T09:30:05.828Z,53.54
2023-03-11T09:32:32.368Z,52.60
2023-03-11T09:34:58.656Z,53.23
2023-03-11T09:37:25.011Z,52.63
2023-03-11T09:39:51.386Z,52.47
2023-03-11T09:42:27.609Z,53.04
2023-03-11T09:45:04.703Z,52.27
2023-03-11T09:48:01.350Z,52.27
2023-03-11T09:50:32.712Z,51.55
2023-03-11T09:53:22.566Z,51.36
2023-03-11T09:55:53.914Z,53.21
2023-03-11T09:58:36.155Z,53.08
2023-03-11T10:01:10.423Z,52.56
2023-03-11T10:03:39.666Z,52.45
2023-03-11T10:06:19.445Z,51.94
2023-03-11T10:08:52.548Z,52.74
2023-03-11T10:11:32.420Z,54.53
2023-03-11T10:14:07.750Z,55.25
2023-03-11T10:16:49.057Z,58.29
2023-03-11T10:19:19.848Z,58.83
2023-03-11T10:22:07.055Z,59.05
2023-03-11T10:24:40.263Z,58.33
2023-03-11T10:27:15.971Z,57.72
2023-03-11T10:29:59.949Z,55.29
2023-03-11T10:32:39.349Z,52.62
2023-03-11T10:35:21.610Z,52.11
2023-03-11T10:37:59.258Z,51.84
2023-03-11T10:40:35.867Z,50.11
2023-03-11T10:43:18.773Z,49.72
2023-03-11T10:45:46.769Z,46.78
2023-03-11T10:48:18.608Z,46.30
2023-03-11T10:50:54.217Z,47.08
2023-03-11T10:53:21.029Z,49.01
2023-03-11T10:55:56.544Z,49.80
2023-03-11T10:58:29.205Z,50.32
2023-03-11T11:01:14.424Z,50.18
2023-03-11T11:03:47.023Z,52.37
2023-03-11T11:06:24.717Z,53.30
2023-03-11T11:09:05.192Z,52.53
2023-03-11T11:11:31.611Z,53.32
2023-03-11T11:13:59.335Z,54.27
2023-03-11T11:16:26.517Z,53.49
2023-03-11T11:19:14.063Z,53.77
2023-03-11T11:21:48.929Z,53.40
2023-03-11T11:24:24.412Z,53.21
2023-03-11T11:27:15.817Z,50.91
2023-03-11T11:29:43.004Z,49.79
2023-03-11T11:32:15.133Z,50.03
2023-03-11T11:34:41.911Z,51.08
2023-03-11T11:37:13.260Z,50.82
2023-03-11T11:39:50.304Z,51.96
2023-03-11T11:42:18.516Z,52.06
2023-03-11T11:44:48.284Z,54.11
2023-03-11T11:47:23.895Z,51.10
2023-03-11T11:49:56.058Z,51.35
2023-03-11T11:52:34.821Z,51.44
2023-03-11T11:55:06.459Z,48.75
2023-03-11T11:57:32.926Z,48.41
2023-03-11T11:59:59.613Z,49.05
2023-03-11T12:02:53.649Z,48.91
2023-03-11T12:05:30.553Z,49.55
2023-03-11T12:08:10.495Z,48.30
2023-03-11T12:10:39.849Z,48.20
2023-03-11T12:13:34.075Z,47.26
2023-03-11T12:16:13.865Z,46.46
2023-03-11T12:18:56.394Z,44.80
2023-03-11T12:21:43.430Z,46.61
2023-03-11T12:24:30.079Z,45.27
2023-03-11T12:27:02.404Z,45.50
2023-03-11T12:29:34.148Z,45.74
2023-03-11T12:32:02.202Z,45.90
2023-03-11T12:34:33.933Z,46.78
2023-03-11T12:37:01.422Z,47.50
2023-03-11T12:39:31.225Z,49.03
2023-03-11T12:42:19.205Z,50.13
2023-03-11T12:44:46.716Z,52.00
2023-03-11T12:47:12.997Z,52.41
2023-03-11T12:49:41.798Z,53.80
2023-03-11T12:52:11.268Z,53.69
2023-03-11T12:54:45.650Z,54.20
2023-03-11T12:57:17.988Z,53.69
2023-03-11T13:00:03.093Z,54.39
2023-03-11T13:03:07.071Z,54.31
2023-03-11T13:05:52.012Z,54.10
2023-03-11T13:08:48.989Z,55.00
2023-03-11T13:11:38.414Z,54.01
2023-03-11T13:14:26.409Z,52.69
2023-03-11T13:16:52.704Z,52.48
2023-03-11T13:19:34.402Z,52.80
2023-03-11T13:22:02.781Z,53.58
2023-03-11T13:24:29.018Z,52.67
2023-03-11T13:27:03.370Z,52.67
2023-03-11T13:29:53.161Z,51.61
2023-03-11T13:32:41.617Z,54.06
2023-03-11T13:35:35.734Z,53.56
2023-03-11T13:38:24.459Z,54.34
2023-03-11T13:40:52.231Z,53.84
2023-03-11T13:43:22.845Z,54.53
2023-03-11T13:45:54.749Z,54.39
2023-03-11T13:48:28.538Z,55.15
2023-03-11T13:51:06.325Z,53.80
2023-03-11T13:53:39.370Z,54.13
2023-03-11T13:56:06.146Z,53.71
2023-03-11T13:58:32.431Z,54.39
2023-03-11T14:01:00.912Z,54.10
2023-03-11T14:03:33.721Z,53.51
2023-03-11T14:06:06.489Z,53.90
2023-03-11T14:08:35.060Z,54.17
2023-03-11T14:11:17.238Z,52.82
2023-03-11T14:13:45.919Z,52.79
2023-03-11T14:16:21.315Z,53.01
2023-03-11T14:19:03.359Z,53.12
2023-03-11T14:21:29.695Z,52.81
2023-03-11T14:23:56.480Z,53.79
2023-03-11T14:26:27.696Z,51.80
2023-03-11T14:28:57.091Z,53.29
2023-03-11T14:31:35.547Z,52.98
2023-03-11T14:34:15.173Z,52.67
2023-03-11T14:36:47.290Z,51.72
2023-03-11T14:39:27.654Z,51.98
2023-03-11T14:42:04.000Z,47.37
2023-03-11T14:44:33.633Z,46.23
2023-03-11T14:47:09.592Z,45.96
2023-03-11T14:49:36.400Z,45.09
2023-03-11T14:52:08.619Z,46.51
2023-03-11T14:54:36.549Z,45.62
2023-03-11T14:57:08.817Z,46.75
2023-03-11T14:59:37.073Z,46.37
2023-03-11T15:02:38.123Z,46.91
2023-03-11T15:05:14.198Z,47.76
2023-03-11T15:07:40.528Z,47.48
2023-03-11T15:10:09.803Z,47.30
2023-03-11T15:12:41.283Z,47.73
2023-03-11T15:15:26.840Z,47.94
2023-03-11T15:17:57.925Z,48.80
2023-03-11T15:20:31.338Z,49.03
2023-03-11T15:23:01.576Z,49.22
2023-03-11T15:25:30.851Z,49.56
2023-03-11T15:27:57.614Z,49.75
2023-03-11T15:30:25.733Z,50.69
2023-03-11T15:32:52.289Z,49.73
2023-03-11T15:35:24.511Z,51.00
2023-03-11T15:38:11.569Z,51.33
2023-03-11T15:40:45.249Z,51.85
2023-03-11T15:43:14.908Z,52.10
2023-03-11T15:45:41.892Z,51.99
2023-03-11T15:48:10.534Z,51.65
2023-03-11T15:50:52.878Z,52.34
2023-03-11T15:53:21.735Z,52.81
2023-03-11T15:55:48.263Z,53.19
2023-03-11T15:58:16.689Z,53.54
2023-03-11T16:00:56.872Z,53.56
2023-03-11T16:03:23.972Z,53.25
2023-03-11T16:05:50.675Z,52.98
2023-03-11T16:08:16.958Z,52.66
2023-03-11T16:10:43.666Z,52.17
2023-03-11T16:13:12.636Z,52.42
2023-03-11T16:15:39.051Z,52.84
2023-03-11T16:18:07.040Z,53.15
2023-03-11T16:20:40.295Z,53.77
2023-03-11T16:23:10.309Z,53.94
2023-03-11T16:25:39.665Z,54.11
2023-03-11T16:28:06.917Z,53.96
2023-03-11T16:30:34.731Z,54.19
2023-03-11T16:33:03.947Z,54.96
2023-03-11T16:35:31.129Z,55.13
2023-03-11T16:37:57.453Z,55.24
2023-03-11T16:40:26.152Z,54.15
2023-03-11T16:42:57.511Z,53.90
2023-03-11T16:45:23.942Z,54.87
2023-03-11T16:47:50.377Z,54.21
2023-03-11T16:50:16.910Z,53.29
2023-03-11T16:52:43.189Z,53.89
2023-03-11T16:55:09.742Z,54.06
2023-03-11T16:57:36.146Z,54.04
2023-03-11T17:00:03.031Z,54.23
2023-03-11T17:02:29.403Z,54.63
2023-03-11T17:04:55.992Z,55.09
2023-03-11T17:07:22.403Z,54.29
2023-03-11T17:09:48.890Z,54.14
2023-03-11T17:12:15.243Z,54.30
2023-03-11T17:14:41.580Z,55.12
2023-03-11T17:17:07.955Z,54.66
2023-03-11T17:19:34.284Z,54.55
2023-03-11T17:22:00.672Z,54.30
2023-03-11T17:24:26.976Z,54.80
2023-03-11T17:26:53.272Z,54.69
2023-03-11T17:29:19.549Z,55.09
2023-03-11T17:31:45.965Z,55.55
2023-03-11T17:34:12.331Z,55.62
2023-03-11T17:36:38.674Z,55.67
2023-03-11T17:39:05.081Z,55.87
2023-03-11T17:41:31.499Z,55.98
2023-03-11T17:43:57.799Z,55.70
2023-03-11T17:46:24.322Z,55.80
2023-03-11T17:48:51.100Z,56.00
2023-03-11T17:51:20.436Z,56.02
2023-03-11T17:53:48.364Z,55.97
2023-03-11T17:56:17.400Z,55.85
2023-03-11T17:58:44.579Z,55.98
2023-03-11T18:01:15.032Z,56.13
2023-03-11T18:03:42.159Z,56.06
2023-03-11T18:06:09.472Z,56.28
2023-03-11T18:08:36.635Z,56.04
2023-03-11T18:11:06.260Z,56.43
2023-03-11T18:13:33.815Z,56.25
2023-03-11T18:16:06.919Z,56.39
2023-03-11T18:18:34.934Z,55.71
2023-03-11T18:21:07.013Z,55.84
2023-03-11T18:23:35.424Z,56.19
2023-03-11T18:26:04.210Z,56.71
2023-03-11T18:28:30.592Z,56.58
2023-03-11T18:30:56.997Z,56.15
2023-03-11T18:33:24.341Z,56.62
2023-03-11T18:35:50.805Z,56.19
2023-03-11T18:38:17.144Z,56.53
2023-03-11T18:40:43.496Z,56.87
2023-03-11T18:43:12.553Z,57.05
2023-03-11T18:45:39.850Z,56.66
2023-03-11T18:48:06.309Z,57.04
2023-03-11T18:50:32.631Z,57.30
2023-03-11T18:52:58.969Z,57.29
2023-03-11T18:55:25.326Z,57.19
2023-03-11T18:57:51.614Z,57.15
2023-03-11T19:00:18.367Z,57.51
2023-03-11T19:02:44.762Z,57.55
2023-03-11T19:05:11.197Z,57.88
2023-03-11T19:07:37.604Z,58.00
2023-03-11T19:10:04.294Z,58.24
2023-03-11T19:12:30.735Z,58.52
2023-03-11T19:14:57.036Z,59.04
2023-03-11T19:17:23.446Z,58.64
2023-03-11T19:19:49.797Z,59.40
2023-03-11T19:22:16.112Z,59.71
2023-03-11T19:24:42.433Z,59.98
2023-03-11T19:27:08.732Z,59.73
2023-03-11T19:29:35.172Z,59.90
2023-03-11T19:32:03.474Z,59.91
2023-03-11T19:34:29.961Z,60.20
2023-03-11T19:36:56.275Z,60.31
2023-03-11T19:39:22.584Z,59.91
2023-03-11T19:41:48.889Z,60.19
2023-03-11T19:44:15.425Z,60.83
2023-03-11T19:46:41.814Z,61.20
2023-03-11T19:49:08.266Z,61.16
2023-03-11T19:51:48.481Z,61.43
2023-03-11T19:54:16.460Z,60.96
2023-03-11T19:56:42.931Z,62.08
2023-03-11T19:59:09.236Z,62.89
2023-03-11T20:01:35.646Z,63.26
2023-03-11T20:04:01.970Z,63.69
2023-03-11T20:06:28.406Z,65.03
2023-03-11T20:08:54.741Z,64.15
2023-03-11T20:11:21.755Z,64.55
2023-03-11T20:13:48.133Z,64.97
2023-03-11T20:16:18.755Z,64.23
2023-03-11T20:18:48.811Z,64.17
2023-03-11T20:21:15.198Z,63.96
2023-03-11T20:23:41.616Z,64.35
2023-03-11T20:26:13.819Z,64.43
2023-03-11T20:28:40.791Z,63.90
2023-03-11T20:31:15.864Z,64.01
2023-03-11T20:33:42.437Z,63.88
2023-03-11T20:36:12.869Z,63.63
2023-03-11T20:38:39.619Z,64.83
2023-03-11T20:41:06.364Z,66.18
2023-03-11T20:43:33.693Z,65.34
2023-03-11T20:46:00.815Z,66.14
2023-03-11T20:48:28.215Z,65.28
2023-03-11T20:50:54.610Z,64.48
2023-03-11T20:53:21.029Z,64.80
2023-03-11T20:55:47.401Z,64.47
2023-03-11T20:58:13.792Z,64.56
2023-03-11T21:00:40.137Z,64.29
2023-03-11T21:03:06.504Z,64.77
2023-03-11T21:05:37.043Z,64.75
2023-03-11T21:08:04.146Z,64.32
2023-03-11T21:10:31.058Z,65.82
2023-03-11T21:12:57.492Z,64.74
2023-03-11T21:15:24.072Z,64.63
2023-03-11T21:17:50.450Z,64.93
2023-03-11T21:20:17.028Z,65.14
2023-03-11T21:22:43.473Z,67.15
2023-03-11T21:25:09.796Z,65.64
2023-03-11T21:27:36.178Z,66.28
2023-03-11T21:30:02.502Z,65.62
2023-03-11T21:32:29.007Z,65.60
2023-03-11T21:34:57.633Z,66.10
2023-03-11T21:37:24.492Z,65.72
2023-03-11T21:39:51.123Z,65.55
2023-03-11T21:42:18.268Z,68.95
2023-03-11T21:44:44.701Z,66.92
2023-03-11T21:47:12.246Z,66.80
2023-03-11T21:49:38.535Z,67.69
2023-03-11T21:52:06.586Z,67.91
2023-03-11T21:54:33.065Z,66.61
2023-03-11T21:56:59.411Z,67.24
2023-03-11T21:59:26.106Z,67.77
2023-03-11T22:01:52.843Z,66.74
2023-03-11T22:04:19.388Z,66.79
2023-03-11T22:06:45.816Z,68.18
2023-03-11T22:09:12.284Z,68.04
2023-03-11T22:11:38.619Z,67.52
2023-03-11T22:14:04.961Z,68.16
2023-03-11T22:16:31.502Z,67.74
2023-03-11T22:18:57.862Z,67.38
2023-03-11T22:21:24.389Z,68.43
2023-03-11T22:23:50.889Z,68.97
2023-03-11T22:26:17.533Z,68.33
2023-03-11T22:28:43.833Z,68.15
2023-03-11T22:31:12.883Z,68.54
2023-03-11T22:33:39.759Z,69.09
2023-03-11T22:36:07.067Z,68.76
2023-03-11T22:38:33.503Z,69.63
2023-03-11T22:40:59.998Z,69.95
2023-03-11T22:43:27.012Z,69.16
2023-03-11T22:45:53.486Z,69.09
2023-03-11T22:48:19.843Z,68.59
2023-03-11T22:50:46.136Z,69.52
2023-03-11T22:53:13.033Z,70.21
2023-03-11T22:55:40.438Z,69.47
2023-03-11T22:58:07.270Z,69.85
2023-03-11T23:00:33.660Z,71.15
2023-03-11T23:02:59.942Z,70.11
2023-03-11T23:05:26.248Z,70.87
2023-03-11T23:07:52.575Z,69.87
2023-03-11T23:10:21.267Z,70.95
2023-03-11T23:12:48.235Z,71.03
2023-03-11T23:15:17.892Z,71.11
2023-03-11T23:17:44.776Z,70.62
2023-03-11T23:20:15.714Z,72.12
2023-03-11T23:22:42.363Z,71.90
2023-03-11T23:25:12.420Z,71.83
2023-03-11T23:27:38.742Z,70.88
2023-03-11T23:30:06.243Z,71.13
2023-03-11T23:32:32.866Z,71.10
2023-03-11T23:34:59.300Z,72.00
2023-03-11T23:37:25.614Z,72.57
2023-03-11T23:39:51.950Z,72.18
2023-03-11T23:42:25.508Z,71.98
2023-03-11T23:44:53.098Z,75.19
2023-03-11T23:47:19.568Z,72.20
2023-03-11T23:49:45.872Z,72.17
2023-03-11T23:52:12.207Z,71.96
2023-03-11T23:54:38.543Z,72.05
2023-03-11T23:57:04.835Z,72.23
2023-03-11T23:59:31.161Z,72.37
